createdAt,value
2023-01-09T00:01:32.170Z,49.20
2023-01-09T00:04:01.211Z,47.78
2023-01-09T00:06:29.307Z,54.55
2023-01-09T00:08:57.545Z,50.75
2023-01-09T00:11:25.764Z,47.75
2023-01-09T00:13:53.857Z,51.17
2023-01-09T00:16:22.616Z,51.13
2023-01-09T00:18:50.945Z,54.75
2023-01-09T00:21:19.232Z,53.47
2023-01-09T00:23:47.254Z,50.20
2023-01-09T00:26:18.150Z,47.22
2023-01-09T00:28:47.598Z,44.53
2023-01-09T00:31:16.133Z,44.65
2023-01-09T00:33:53.506Z,42.97
2023-01-09T00:36:21.742Z,42.78
2023-01-09T00:38:51.109Z,41.17
2023-01-09T00:41:30.851Z,37.15
2023-01-09T00:44:04.782Z,37.35
2023-01-09T00:46:36.769Z,37.58
2023-01-09T00:49:08.778Z,36.55
2023-01-09T00:51:39.633Z,38.20
2023-01-09T00:54:09.128Z,35.78
2023-01-09T00:56:38.379Z,32.70
2023-01-09T00:59:07.747Z,31.42
2023-01-09T01:01:36.449Z,29.80
2023-01-09T01:04:24.692Z,29.25
2023-01-09T01:07:11.320Z,29.05
2023-01-09T01:09:40.219Z,31.75
2023-01-09T01:12:08.495Z,33.00
2023-01-09T01:14:39.097Z,29.40
2023-01-09T01:17:07.925Z,32.10
2023-01-09T01:19:36.499Z,28.45
2023-01-09T01:22:05.176Z,28.13
2023-01-09T01:24:33.606Z,34.53
2023-01-09T01:27:01.707Z,36.22
2023-01-09T01:29:29.822Z,34.50
2023-01-09T01:31:57.797Z,30.63
2023-01-09T01:34:26.261Z,32.35
2023-01-09T01:36:54.356Z,30.75
2023-01-09T01:39:22.996Z,34.63
2023-01-09T01:41:51.155Z,34.38
2023-01-09T01:44:56.760Z,34.78
2023-01-09T01:47:35.120Z,38.05
2023-01-09T01:50:13.812Z,33.97
2023-01-09T01:52:45.088Z,31.98
2023-01-09T01:55:13.336Z,31.85
2023-01-09T01:57:45.232Z,31.98
2023-01-09T02:00:13.767Z,32.22
2023-01-09T02:02:43.830Z,33.70
2023-01-09T02:05:12.863Z,31.85
2023-01-09T02:07:41.211Z,33.45
2023-01-09T02:10:10.162Z,33.38
2023-01-09T02:12:38.203Z,35.45
2023-01-09T02:15:10.909Z,34.17
2023-01-09T02:17:57.969Z,34.03
2023-01-09T02:20:35.017Z,32.42
2023-01-09T02:23:21.270Z,34.40
2023-01-09T02:26:25.741Z,30.73
2023-01-09T02:29:05.781Z,31.05
2023-01-09T02:32:01.340Z,35.30
2023-01-09T02:34:55.069Z,30.05
2023-01-09T02:37:32.845Z,28.02
2023-01-09T02:40:28.568Z,28.30
2023-01-09T02:42:59.001Z,27.42
2023-01-09T02:45:27.673Z,27.25
2023-01-09T02:47:55.875Z,27.75
2023-01-09T02:50:50.252Z,27.13
2023-01-09T02:53:32.741Z,27.05
2023-01-09T02:56:09.998Z,27.63
2023-01-09T02:58:41.054Z,24.38
2023-01-09T03:01:21.060Z,22.38
2023-01-09T03:04:16.539Z,19.30
2023-01-09T03:07:00.183Z,18.65
2023-01-09T03:12:09.129Z,20.88
2023-01-09T03:14:41.342Z,20.23
2023-01-09T03:17:13.268Z,21.75
2023-01-09T03:19:42.958Z,28.20
2023-01-09T03:22:11.839Z,30.63
2023-01-09T03:24:41.663Z,30.00
2023-01-09T03:27:10.433Z,28.88
2023-01-09T03:29:38.399Z,25.80
2023-01-09T03:32:06.611Z,21.02
2023-01-09T03:34:34.641Z,20.73
2023-01-09T03:37:05.154Z,21.40
2023-01-09T03:39:33.799Z,22.02
2023-01-09T03:42:01.788Z,19.98
2023-01-09T03:44:56.068Z,17.60
2023-01-09T03:47:24.380Z,18.88
2023-01-09T03:49:52.780Z,17.58
2023-01-09T03:52:46.227Z,15.88
2023-01-09T03:55:49.687Z,15.95
2023-01-09T03:58:19.463Z,17.17
2023-01-09T04:00:52.704Z,18.08
2023-01-09T04:03:21.527Z,18.95
2023-01-09T04:05:50.476Z,12.82
2023-01-09T04:08:18.953Z,10.63
2023-01-09T04:10:49.447Z,8.52
2023-01-09T04:13:18.011Z,7.68
2023-01-09T04:15:46.392Z,7.47
2023-01-09T04:18:15.293Z,7.60
2023-01-09T04:20:46.743Z,7.43
2023-01-09T04:23:15.076Z,10.52
2023-01-09T04:25:43.821Z,18.38
2023-01-09T04:28:37.675Z,18.15
2023-01-09T04:33:34.724Z,21.23
2023-01-09T04:36:02.921Z,25.90
2023-01-09T04:38:31.501Z,23.20
2023-01-09T04:40:59.885Z,23.58
2023-01-09T04:43:29.090Z,23.98
2023-01-09T04:45:57.263Z,61.55
2023-01-09T04:48:25.765Z,116.32
2023-01-09T04:50:53.722Z,25.67
2023-01-09T04:53:22.289Z,19.60
2023-01-09T04:55:50.296Z,18.02
2023-01-09T04:58:19.048Z,17.48
2023-01-09T05:00:47.437Z,15.98
2023-01-09T05:03:15.511Z,16.33
2023-01-09T05:05:44.390Z,14.60
2023-01-09T05:08:12.408Z,10.20
2023-01-09T05:10:40.401Z,10.60
2023-01-09T05:13:08.611Z,13.98
2023-01-09T05:15:36.603Z,11.65
2023-01-09T05:18:04.803Z,12.23
2023-01-09T05:20:32.848Z,12.88
2023-01-09T05:23:01.022Z,14.25
2023-01-09T05:25:29.603Z,13.50
2023-01-09T05:27:58.379Z,13.45
2023-01-09T05:30:26.419Z,14.82
2023-01-09T05:32:54.676Z,12.38
2023-01-09T05:35:23.816Z,11.82
2023-01-09T05:37:52.389Z,12.25
2023-01-09T05:40:20.678Z,35.70
2023-01-09T05:42:48.936Z,13.15
2023-01-09T05:45:17.260Z,13.05
2023-01-09T05:47:46.448Z,15.50
2023-01-09T05:50:14.989Z,16.25
2023-01-09T05:52:44.111Z,11.27
2023-01-09T05:55:13.614Z,11.07
2023-01-09T05:57:42.171Z,10.68
2023-01-09T06:00:11.060Z,12.52
2023-01-09T06:02:39.242Z,12.63
2023-01-09T06:05:08.254Z,13.90
2023-01-09T06:07:40.291Z,13.32
2023-01-09T06:10:14.201Z,20.15
2023-01-09T06:12:46.931Z,18.30
2023-01-09T06:15:16.569Z,15.18
2023-01-09T06:17:44.805Z,15.63
2023-01-09T06:20:13.055Z,14.50
2023-01-09T06:22:41.220Z,16.25
2023-01-09T06:25:09.715Z,15.30
2023-01-09T06:27:37.961Z,13.13
2023-01-09T06:30:07.380Z,15.05
2023-01-09T06:32:35.660Z,11.43
2023-01-09T06:35:04.202Z,11.20
2023-01-09T06:37:33.485Z,13.88
2023-01-09T06:40:01.970Z,14.68
2023-01-09T06:42:32.831Z,14.07
2023-01-09T06:45:00.946Z,13.35
2023-01-09T06:47:31.397Z,12.40
2023-01-09T06:49:59.617Z,11.15
2023-01-09T06:52:28.059Z,12.43
2023-01-09T06:54:57.317Z,10.45
2023-01-09T06:57:25.294Z,13.77
2023-01-09T06:59:53.969Z,12.20
2023-01-09T07:02:23.087Z,11.43
2023-01-09T07:04:52.463Z,12.05
2023-01-09T07:07:22.479Z,15.00
2023-01-09T07:09:50.658Z,15.85
2023-01-09T07:12:18.712Z,15.70
2023-01-09T07:14:47.173Z,16.98
2023-01-09T07:17:15.800Z,17.30
2023-01-09T07:19:43.883Z,16.88
2023-01-09T07:22:11.979Z,18.27
2023-01-09T07:25:05.954Z,15.38
2023-01-09T07:27:34.161Z,13.70
2023-01-09T07:30:02.772Z,16.52
2023-01-09T07:32:33.875Z,19.27
2023-01-09T07:35:02.323Z,16.38
2023-01-09T07:37:30.759Z,18.08
2023-01-09T07:39:59.460Z,11.05
2023-01-09T07:42:27.449Z,12.52
2023-01-09T07:44:55.891Z,18.73
2023-01-09T07:47:23.905Z,19.98
2023-01-09T07:49:52.790Z,18.60
2023-01-09T07:52:20.831Z,30.15
2023-01-09T07:54:48.886Z,17.52
2023-01-09T07:57:17.216Z,18.65
2023-01-09T07:59:45.525Z,23.42
2023-01-09T08:02:13.601Z,24.08
2023-01-09T08:04:41.707Z,21.63
2023-01-09T08:07:10.273Z,22.13
2023-01-09T08:09:38.340Z,22.25
2023-01-09T08:12:07.061Z,23.75
2023-01-09T08:14:36.177Z,27.70
2023-01-09T08:17:04.200Z,24.20
2023-01-09T08:19:32.379Z,24.80
2023-01-09T08:22:01.047Z,25.40
2023-01-09T08:24:30.461Z,24.33
2023-01-09T08:26:59.015Z,23.45
2023-01-09T08:29:29.255Z,22.02
2023-01-09T08:31:57.271Z,16.52
2023-01-09T08:34:25.616Z,16.75
2023-01-09T08:36:54.535Z,18.20
2023-01-09T08:40:37.015Z,20.90
2023-01-09T08:43:24.284Z,34.92
2023-01-09T08:46:11.236Z,34.40
2023-01-09T08:48:39.536Z,35.88
2023-01-09T08:51:07.633Z,38.58
2023-01-09T08:53:36.039Z,35.42
2023-01-09T08:56:04.473Z,35.63
2023-01-09T08:58:32.965Z,34.38
2023-01-09T09:01:00.960Z,42.72
2023-01-09T09:03:29.165Z,21.10
2023-01-09T09:05:57.417Z,24.08
2023-01-09T09:08:25.933Z,21.90
2023-01-09T09:10:54.944Z,20.52
2023-01-09T09:13:22.994Z,24.10
2023-01-09T09:15:51.753Z,22.02
2023-01-09T09:18:19.951Z,21.73
2023-01-09T09:20:48.535Z,17.80
2023-01-09T09:23:17.156Z,17.30
2023-01-09T09:25:45.577Z,13.98
2023-01-09T09:28:13.688Z,14.45
2023-01-09T09:30:42.940Z,13.65
2023-01-09T09:33:11.281Z,11.52
2023-01-09T09:35:39.251Z,7.03
2023-01-09T09:38:08.187Z,9.18
2023-01-09T09:40:42.390Z,12.35
2023-01-09T09:43:43.237Z,8.68
2023-01-09T09:46:42.491Z,9.35
2023-01-09T09:49:44.046Z,9.38
2023-01-09T09:52:35.331Z,10.13
2023-01-09T09:55:18.168Z,8.65
2023-01-09T09:57:47.669Z,10.93
2023-01-09T10:00:20.368Z,10.75
2023-01-09T10:02:52.164Z,24.60
2023-01-09T10:05:31.089Z,24.52
2023-01-09T10:08:15.956Z,29.23
2023-01-09T10:10:54.517Z,41.03
2023-01-09T10:13:45.193Z,32.75
2023-01-09T10:16:48.560Z,37.83
2023-01-09T10:19:44.234Z,48.22
2023-01-09T10:22:15.526Z,55.80
2023-01-09T10:25:22.703Z,47.17
2023-01-09T10:27:59.257Z,68.47
2023-01-09T10:30:48.294Z,64.95
2023-01-09T10:33:40.959Z,33.80
2023-01-09T10:36:18.369Z,25.00
2023-01-09T10:38:51.068Z,19.15
2023-01-09T10:41:42.392Z,26.55
2023-01-09T10:44:13.739Z,16.58
2023-01-09T10:46:48.834Z,16.65
2023-01-09T10:49:18.928Z,17.02
2023-01-09T10:51:50.758Z,16.60
2023-01-09T10:54:23.607Z,10.75
2023-01-09T10:56:57.398Z,11.25
2023-01-09T10:59:26.488Z,9.40
2023-01-09T11:01:55.145Z,9.35
2023-01-09T11:04:38.109Z,9.55
2023-01-09T11:07:12.940Z,11.02
2023-01-09T11:10:00.673Z,7.88
2023-01-09T11:12:33.121Z,7.30
2023-01-09T11:15:30.742Z,7.40
2023-01-09T11:18:18.084Z,8.05
2023-01-09T11:20:46.977Z,6.60
2023-01-09T11:23:42.114Z,6.60
2023-01-09T11:26:24.319Z,6.78
2023-01-09T11:29:16.833Z,5.80
2023-01-09T11:31:58.359Z,6.10
2023-01-09T11:34:34.127Z,4.90
2023-01-09T11:37:09.382Z,6.22
2023-01-09T11:39:41.962Z,7.95
2023-01-09T11:42:42.237Z,4.63
2023-01-09T11:45:17.832Z,5.22
2023-01-09T11:47:46.456Z,5.65
2023-01-09T11:50:21.150Z,5.95
2023-01-09T11:53:11.905Z,7.05
2023-01-09T11:55:43.254Z,5.88
2023-01-09T11:58:36.409Z,5.68
2023-01-09T12:01:16.206Z,4.30
2023-01-09T12:03:53.439Z,4.93
2023-01-09T12:06:57.891Z,4.28
2023-01-09T12:09:55.617Z,5.22
2023-01-09T12:12:48.354Z,6.57
2023-01-09T12:15:31.411Z,7.47
2023-01-09T12:18:24.145Z,4.10
2023-01-09T12:21:05.099Z,4.00
2023-01-09T12:23:42.128Z,3.22
2023-01-09T12:26:17.429Z,2.80
2023-01-09T12:29:10.573Z,4.35
2023-01-09T12:31:44.340Z,2.85
2023-01-09T12:34:34.930Z,4.35
2023-01-09T12:37:38.198Z,3.25
2023-01-09T12:40:32.600Z,3.40
2023-01-09T12:43:21.756Z,7.93
2023-01-09T12:46:03.551Z,4.38
2023-01-09T12:48:37.265Z,8.35
2023-01-09T12:51:17.839Z,17.92
2023-01-09T12:54:06.325Z,6.63
2023-01-09T12:56:41.200Z,9.15
2023-01-09T12:59:30.894Z,14.05
2023-01-09T13:02:07.938Z,8.13
2023-01-09T13:04:51.565Z,11.80
2023-01-09T13:07:24.487Z,22.30
2023-01-09T13:10:48.084Z,9.88
2023-01-09T13:13:22.419Z,6.40
2023-01-09T13:15:58.804Z,11.63
2023-01-09T13:18:42.539Z,3.63
2023-01-09T13:21:13.830Z,3.58
2023-01-09T13:23:48.057Z,4.63
2023-01-09T13:26:55.203Z,3.00
2023-01-09T13:29:29.159Z,2.40
2023-01-09T13:32:33.524Z,3.03
2023-01-09T13:35:02.372Z,1.98
2023-01-09T13:37:34.474Z,1.20
2023-01-09T13:40:29.793Z,1.50
2023-01-09T13:43:11.425Z,0.93
2023-01-09T13:45:41.264Z,1.08
2023-01-09T13:48:11.218Z,1.48
2023-01-09T13:50:40.986Z,2.38
2023-01-09T13:53:18.846Z,3.13
2023-01-09T13:56:00.059Z,1.38
2023-01-09T13:58:31.498Z,1.30
2023-01-09T14:01:03.308Z,1.00
2023-01-09T14:03:37.345Z,1.08
2023-01-09T14:06:17.835Z,0.60
2023-01-09T14:08:48.309Z,0.65
2023-01-09T14:11:20.763Z,1.20
2023-01-09T14:13:57.051Z,1.07
2023-01-09T14:16:27.424Z,1.40
2023-01-09T14:19:20.042Z,1.90
2023-01-09T14:21:57.819Z,1.48
2023-01-09T14:24:49.584Z,2.33
2023-01-09T14:27:54.281Z,1.30
2023-01-09T14:30:29.608Z,2.25
2023-01-09T14:33:06.399Z,5.65
2023-01-09T14:35:52.466Z,3.25
2023-01-09T14:38:29.286Z,3.22
2023-01-09T14:41:11.812Z,3.65
2023-01-09T14:43:54.529Z,3.83
2023-01-09T14:46:30.080Z,5.15
2023-01-09T14:49:14.205Z,3.10
2023-01-09T14:51:47.442Z,5.88
2023-01-09T14:54:32.366Z,4.07
2023-01-09T14:57:02.582Z,5.72
2023-01-09T14:59:36.004Z,3.25
2023-01-09T15:02:11.298Z,3.03
2023-01-09T15:04:43.626Z,3.33
2023-01-09T15:07:22.450Z,2.28
2023-01-09T15:09:51.398Z,3.03
2023-01-09T15:12:23.150Z,3.03
2023-01-09T15:14:55.011Z,4.07
2023-01-09T15:18:00.276Z,3.40
2023-01-09T15:20:31.284Z,3.88
2023-01-09T15:23:01.710Z,3.58
2023-01-09T15:25:40.024Z,4.78
2023-01-09T15:28:44.326Z,4.25
2023-01-09T15:31:39.495Z,4.05
2023-01-09T15:34:07.706Z,4.20
2023-01-09T15:36:38.410Z,3.00
2023-01-09T15:39:07.639Z,3.05
2023-01-09T15:41:54.925Z,3.58
2023-01-09T15:44:30.533Z,4.10
2023-01-09T15:47:01.376Z,5.93
2023-01-09T15:49:56.387Z,5.85
2023-01-09T15:52:26.320Z,8.18
2023-01-09T15:54:58.418Z,7.47
2023-01-09T15:57:52.407Z,7.38
2023-01-09T16:03:20.435Z,7.47
2023-01-09T16:05:52.159Z,6.28
2023-01-09T16:08:21.106Z,6.72
2023-01-09T16:10:56.646Z,5.68
2023-01-09T16:13:29.255Z,8.35
2023-01-09T16:16:00.001Z,11.65
2023-01-09T16:18:30.765Z,11.23
2023-01-09T16:21:12.186Z,7.70
2023-01-09T16:24:01.085Z,8.57
2023-01-09T16:26:31.054Z,10.55
2023-01-09T16:29:26.695Z,6.47
2023-01-09T16:32:03.551Z,10.65
2023-01-09T16:34:33.513Z,6.13
2023-01-09T16:37:05.357Z,5.63
2023-01-09T16:39:34.106Z,7.95
2023-01-09T16:42:24.292Z,6.93
2023-01-09T16:44:53.153Z,6.75
2023-01-09T16:47:21.235Z,6.95
2023-01-09T16:49:50.082Z,6.65
2023-01-09T16:52:18.608Z,7.88
2023-01-09T16:54:47.606Z,6.97
2023-01-09T16:57:19.094Z,7.50
2023-01-09T16:59:47.463Z,7.00
2023-01-09T17:02:18.927Z,8.38
2023-01-09T17:04:47.287Z,9.55
2023-01-09T17:07:16.769Z,11.73
2023-01-09T17:09:46.415Z,10.18
2023-01-09T17:12:20.341Z,9.38
2023-01-09T17:14:49.881Z,8.68
2023-01-09T17:17:18.407Z,7.70
2023-01-09T17:19:47.027Z,6.70
2023-01-09T17:22:15.815Z,8.00
2023-01-09T17:25:02.788Z,7.50
2023-01-09T17:27:53.153Z,7.53
2023-01-09T17:30:22.783Z,19.33
2023-01-09T17:32:51.326Z,14.40
2023-01-09T17:35:19.672Z,8.52
2023-01-09T17:37:47.777Z,7.88
2023-01-09T17:40:41.403Z,6.93
2023-01-09T17:43:09.677Z,6.50
2023-01-09T17:45:41.114Z,6.03
2023-01-09T17:48:21.208Z,5.50
2023-01-09T17:50:50.051Z,6.90
2023-01-09T17:53:21.155Z,5.97
2023-01-09T17:55:49.319Z,6.00
2023-01-09T17:58:30.322Z,9.27
2023-01-09T18:00:59.731Z,6.18
2023-01-09T18:03:35.786Z,7.90
2023-01-09T18:06:08.767Z,10.85
2023-01-09T18:08:37.373Z,10.50
2023-01-09T18:11:07.307Z,9.57
2023-01-09T18:13:35.298Z,5.15
2023-01-09T18:16:30.400Z,6.25
2023-01-09T18:18:59.202Z,8.10
2023-01-09T18:21:29.571Z,5.75
2023-01-09T18:23:59.489Z,7.63
2023-01-09T18:26:27.699Z,7.70
2023-01-09T18:29:00.407Z,13.25
2023-01-09T18:31:29.500Z,12.50
2023-01-09T18:33:58.830Z,12.20
2023-01-09T18:36:30.394Z,13.45
2023-01-09T18:39:00.777Z,16.15
2023-01-09T18:41:29.683Z,13.27
2023-01-09T18:43:59.698Z,11.77
2023-01-09T18:46:31.966Z,11.45
2023-01-09T18:49:02.700Z,7.70
2023-01-09T18:51:33.452Z,11.45
2023-01-09T18:54:01.670Z,8.65
2023-01-09T18:56:30.089Z,8.65
2023-01-09T18:58:58.675Z,9.60
2023-01-09T19:01:29.035Z,8.82
2023-01-09T19:03:58.429Z,14.63
2023-01-09T19:06:29.647Z,10.20
2023-01-09T19:09:01.057Z,8.38
2023-01-09T19:11:29.536Z,10.88
2023-01-09T19:13:57.550Z,10.00
2023-01-09T19:16:25.903Z,16.50
2023-01-09T19:18:54.097Z,13.65
2023-01-09T19:21:23.966Z,18.33
2023-01-09T19:23:52.086Z,17.08
2023-01-09T19:26:26.122Z,13.43
2023-01-09T19:28:55.518Z,15.00
2023-01-09T19:31:25.262Z,18.15
2023-01-09T19:33:53.346Z,14.50
2023-01-09T19:36:47.885Z,9.38
2023-01-09T19:39:16.125Z,13.27
2023-01-09T19:41:44.562Z,14.63
2023-01-09T19:44:12.706Z,16.45
2023-01-09T19:46:40.675Z,11.68
2023-01-09T19:49:09.242Z,14.43
2023-01-09T19:51:37.304Z,13.30
2023-01-09T19:54:08.437Z,10.10
2023-01-09T19:56:43.959Z,15.35
2023-01-09T19:59:14.317Z,17.08
2023-01-09T20:01:42.751Z,9.27
2023-01-09T20:04:16.063Z,9.75
2023-01-09T20:09:19.490Z,33.03
2023-01-09T20:11:47.561Z,14.93
2023-01-09T20:14:16.997Z,12.35
2023-01-09T20:16:46.073Z,11.60
2023-01-09T20:19:17.976Z,9.05
2023-01-09T20:21:46.150Z,8.93
2023-01-09T20:24:19.319Z,7.35
2023-01-09T20:26:47.940Z,8.80
2023-01-09T20:29:41.145Z,9.63
2023-01-09T20:32:10.396Z,7.85
2023-01-09T20:34:38.472Z,9.02
2023-01-09T20:37:06.774Z,11.05
2023-01-09T20:39:34.767Z,12.30
2023-01-09T20:42:02.810Z,11.23
2023-01-09T20:44:31.078Z,12.80
2023-01-09T20:46:59.373Z,9.88
2023-01-09T20:49:27.848Z,7.32
2023-01-09T20:51:55.953Z,9.10
2023-01-09T20:54:24.171Z,11.48
2023-01-09T20:56:53.769Z,10.43
2023-01-09T21:00:37.667Z,11.63
2023-01-09T21:03:06.093Z,11.70
2023-01-09T21:05:35.198Z,13.80
2023-01-09T21:08:03.335Z,12.20
2023-01-09T21:10:31.549Z,15.63
2023-01-09T21:13:00.116Z,15.02
2023-01-09T21:15:53.047Z,17.23
2023-01-09T21:18:21.782Z,16.65
2023-01-09T21:20:50.207Z,15.95
2023-01-09T21:23:18.211Z,18.25
2023-01-09T21:25:48.633Z,23.48
2023-01-09T21:28:18.593Z,24.85
2023-01-09T21:30:49.860Z,19.05
2023-01-09T21:33:22.383Z,20.77
2023-01-09T21:35:58.376Z,19.67
2023-01-09T21:38:26.982Z,25.23
2023-01-09T21:40:55.095Z,24.75
2023-01-09T21:43:48.007Z,26.42
2023-01-09T21:46:37.456Z,23.23
2023-01-09T21:49:07.045Z,22.85
2023-01-09T21:51:39.038Z,21.10
2023-01-09T21:54:08.247Z,21.25
2023-01-09T21:56:36.367Z,17.50
2023-01-09T21:59:04.667Z,23.92
2023-01-09T22:01:32.965Z,21.55
2023-01-09T22:04:01.481Z,18.92
2023-01-09T22:06:29.763Z,21.05
2023-01-09T22:08:58.240Z,21.52
2023-01-09T22:11:26.828Z,23.98
2023-01-09T22:13:57.636Z,25.25
2023-01-09T22:16:27.201Z,25.42
2023-01-09T22:18:56.553Z,22.30
2023-01-09T22:21:26.138Z,21.38
2023-01-09T22:23:54.314Z,24.85
2023-01-09T22:26:22.427Z,25.33
2023-01-09T22:28:51.195Z,26.15
2023-01-09T22:31:21.623Z,25.02
2023-01-09T22:33:53.607Z,29.80
2023-01-09T22:36:21.582Z,23.52
2023-01-09T22:38:49.758Z,22.98
2023-01-09T22:41:17.868Z,27.08
2023-01-09T22:43:46.166Z,20.33
2023-01-09T22:46:14.307Z,21.13
2023-01-09T22:48:42.804Z,25.80
2023-01-09T22:51:19.037Z,22.40
2023-01-09T22:53:47.701Z,25.33
2023-01-09T22:56:18.098Z,21.73
2023-01-09T22:58:51.048Z,22.23
2023-01-09T23:01:19.412Z,22.17
2023-01-09T23:03:48.502Z,23.17
2023-01-09T23:06:19.798Z,22.90
2023-01-09T23:08:52.895Z,23.10
2023-01-09T23:11:44.802Z,22.45
2023-01-09T23:14:34.605Z,24.65
2023-01-09T23:17:20.948Z,22.35
2023-01-09T23:20:08.617Z,21.38
2023-01-09T23:22:56.701Z,25.02
2023-01-09T23:25:52.060Z,19.95
2023-01-09T23:28:38.885Z,25.90
2023-01-09T23:31:26.498Z,23.30
2023-01-09T23:34:23.023Z,20.17
2023-01-09T23:37:10.206Z,19.17
2023-01-09T23:39:56.787Z,17.13
2023-01-09T23:43:01.880Z,16.45
2023-01-09T23:45:52.623Z,19.98
2023-01-09T23:48:38.927Z,19.75
2023-01-09T23:51:25.780Z,20.27
2023-01-09T23:54:12.323Z,22.90
2023-01-09T23:56:59.368Z,19.10
2023-01-09T23:59:27.562Z,21.17
